sensor_id;sensor_type;location;lat;lon;timestamp;pressure;altitude;pressure_sealevel;temperature;humidity
34243;BME280;20504;43.214;27.920;2023-02-21T00:00:06;100580.84;;;7.85;100.00
34243;BME280;20504;43.214;27.920;2023-02-21T00:02:51;100578.97;;;7.87;100.00
34243;BME280;20504;43.214;27.920;2023-02-21T00:05:34;100570.72;;;7.93;100.00
34243;BME280;20504;43.214;27.920;2023-02-21T00:08:19;100574.38;;;7.90;100.00
34243;BME280;20504;43.214;27.920;2023-02-21T00:11:03;100548.88;;;8.07;100.00
34243;BME280;20504;43.214;27.920;2023-02-21T00:13:46;100546.22;;;8.07;100.00
34243;BME280;20504;43.214;27.920;2023-02-21T00:16:30;100555.97;;;7.89;100.00
34243;BME280;20504;43.214;27.920;2023-02-21T00:19:14;100579.91;;;7.86;100.00
34243;BME280;20504;43.214;27.920;2023-02-21T00:21:59;100546.00;;;7.94;100.00
34243;BME280;20504;43.214;27.920;2023-02-21T00:24:43;100531.09;;;7.93;100.00
34243;BME280;20504;43.214;27.920;2023-02-21T00:27:27;100524.88;;;7.94;100.00
34243;BME280;20504;43.214;27.920;2023-02-21T00:30:13;100496.50;;;7.98;100.00
34243;BME280;20504;43.214;27.920;2023-02-21T00:32:57;100501.56;;;8.02;100.00
34243;BME280;20504;43.214;27.920;2023-02-21T00:35:41;100482.38;;;7.99;100.00
34243;BME280;20504;43.214;27.920;2023-02-21T00:38:25;100472.84;;;8.12;100.00
34243;BME280;20504;43.214;27.920;2023-02-21T00:41:09;100467.75;;;8.09;100.00
34243;BME280;20504;43.214;27.920;2023-02-21T00:43:52;100441.50;;;8.06;100.00
34243;BME280;20504;43.214;27.920;2023-02-21T00:46:36;100448.81;;;8.16;100.00
34243;BME280;20504;43.214;27.920;2023-02-21T00:49:20;100458.28;;;8.20;100.00
34243;BME280;20504;43.214;27.920;2023-02-21T00:52:04;100425.13;;;8.15;100.00
34243;BME280;20504;43.214;27.920;2023-02-21T00:54:48;100431.63;;;8.25;100.00
34243;BME280;20504;43.214;27.920;2023-02-21T00:57:32;100409.25;;;8.31;100.00
34243;BME280;20504;43.214;27.920;2023-02-21T01:00:21;100403.41;;;8.41;100.00
34243;BME280;20504;43.214;27.920;2023-02-21T01:03:06;100385.94;;;8.39;100.00
34243;BME280;20504;43.214;27.920;2023-02-21T01:05:51;100379.34;;;8.46;100.00
34243;BME280;20504;43.214;27.920;2023-02-21T01:08:36;100374.81;;;8.48;100.00
34243;BME280;20504;43.214;27.920;2023-02-21T01:11:21;100378.22;;;8.50;100.00
34243;BME280;20504;43.214;27.920;2023-02-21T01:14:06;100395.66;;;8.38;100.00
34243;BME280;20504;43.214;27.920;2023-02-21T01:16:50;100362.38;;;8.50;100.00
34243;BME280;20504;43.214;27.920;2023-02-21T01:19:34;100356.50;;;8.45;100.00
34243;BME280;20504;43.214;27.920;2023-02-21T01:22:18;100367.75;;;8.33;100.00
34243;BME280;20504;43.214;27.920;2023-02-21T01:25:03;100360.75;;;8.32;100.00
34243;BME280;20504;43.214;27.920;2023-02-21T01:27:47;100347.63;;;8.30;100.00
34243;BME280;20504;43.214;27.920;2023-02-21T01:30:31;100333.66;;;8.28;100.00
34243;BME280;20504;43.214;27.920;2023-02-21T01:33:15;100297.44;;;8.46;100.00
34243;BME280;20504;43.214;27.920;2023-02-21T01:35:59;100263.19;;;8.59;100.00
34243;BME280;20504;43.214;27.920;2023-02-21T01:38:43;100266.03;;;8.56;100.00
34243;BME280;20504;43.214;27.920;2023-02-21T01:41:27;100263.66;;;8.65;100.00
34243;BME280;20504;43.214;27.920;2023-02-21T01:44:28;100257.63;;;8.63;100.00
34243;BME280;20504;43.214;27.920;2023-02-21T01:47:13;100243.47;;;8.64;100.00
34243;BME280;20504;43.214;27.920;2023-02-21T01:49:59;100265.13;;;8.55;100.00
34243;BME280;20504;43.214;27.920;2023-02-21T01:52:44;100263.44;;;8.40;100.00
34243;BME280;20504;43.214;27.920;2023-02-21T01:55:30;100252.69;;;8.43;100.00
34243;BME280;20504;43.214;27.920;2023-02-21T01:58:16;100247.41;;;8.43;100.00
34243;BME280;20504;43.214;27.920;2023-02-21T02:01:00;100276.94;;;8.19;100.00
34243;BME280;20504;43.214;27.920;2023-02-21T02:03:44;100223.22;;;8.35;100.00
34243;BME280;20504;43.214;27.920;2023-02-21T02:06:28;100219.50;;;8.23;100.00
34243;BME280;20504;43.214;27.920;2023-02-21T02:09:20;100221.09;;;8.26;100.00
34243;BME280;20504;43.214;27.920;2023-02-21T02:29:40;100139.03;;;8.43;100.00
34243;BME280;20504;43.214;27.920;2023-02-21T02:37:58;100111.09;;;8.53;100.00
34243;BME280;20504;43.214;27.920;2023-02-21T02:40:57;100106.38;;;8.44;100.00
34243;BME280;20504;43.214;27.920;2023-02-21T02:48:39;100062.81;;;8.78;100.00
34243;BME280;20504;43.214;27.920;2023-02-21T02:51:08;100096.97;;;8.95;100.00
34243;BME280;20504;43.214;27.920;2023-02-21T02:53:35;100084.19;;;9.02;100.00
34243;BME280;20504;43.214;27.920;2023-02-21T02:56:09;100093.16;;;9.26;100.00
34243;BME280;20504;43.214;27.920;2023-02-21T02:59:00;100105.09;;;9.59;100.00
34243;BME280;20504;43.214;27.920;2023-02-21T03:01:44;100126.31;;;9.84;100.00
34243;BME280;20504;43.214;27.920;2023-02-21T03:10:11;100176.34;;;10.28;100.00
34243;BME280;20504;43.214;27.920;2023-02-21T03:15:58;100214.97;;;10.06;100.00
34243;BME280;20504;43.214;27.920;2023-02-21T03:18:30;100224.06;;;10.01;100.00
34243;BME280;20504;43.214;27.920;2023-02-21T03:20:59;100243.53;;;9.88;100.00
34243;BME280;20504;43.214;27.920;2023-02-21T03:23:29;100261.06;;;9.76;100.00
34243;BME280;20504;43.214;27.920;2023-02-21T03:26:01;100254.81;;;9.77;100.00
34243;BME280;20504;43.214;27.920;2023-02-21T03:28:28;100259.16;;;9.78;100.00
34243;BME280;20504;43.214;27.920;2023-02-21T03:30:55;100245.72;;;9.81;100.00
34243;BME280;20504;43.214;27.920;2023-02-21T03:33:21;100247.09;;;9.74;100.00
34243;BME280;20504;43.214;27.920;2023-02-21T03:35:48;100253.66;;;9.81;100.00
34243;BME280;20504;43.214;27.920;2023-02-21T03:38:13;100240.91;;;10.00;100.00
34243;BME280;20504;43.214;27.920;2023-02-21T03:40:39;100231.94;;;10.16;100.00
34243;BME280;20504;43.214;27.920;2023-02-21T03:43:05;100247.28;;;10.25;100.00
34243;BME280;20504;43.214;27.920;2023-02-21T03:45:39;100253.53;;;10.37;100.00
34243;BME280;20504;43.214;27.920;2023-02-21T03:48:04;100281.00;;;10.36;100.00
34243;BME280;20504;43.214;27.920;2023-02-21T03:50:30;100289.59;;;10.39;100.00
34243;BME280;20504;43.214;27.920;2023-02-21T03:52:55;100303.19;;;10.47;100.00
34243;BME280;20504;43.214;27.920;2023-02-21T03:55:21;100325.41;;;10.32;100.00
34243;BME280;20504;43.214;27.920;2023-02-21T03:57:46;100304.94;;;10.34;100.00
34243;BME280;20504;43.214;27.920;2023-02-21T04:00:13;100320.38;;;10.42;100.00
34243;BME280;20504;43.214;27.920;2023-02-21T04:02:38;100323.66;;;10.45;100.00
34243;BME280;20504;43.214;27.920;2023-02-21T04:05:04;100325.56;;;10.43;100.00
34243;BME280;20504;43.214;27.920;2023-02-21T04:07:30;100315.16;;;10.53;100.00
34243;BME280;20504;43.214;27.920;2023-02-21T04:09:55;100317.50;;;10.57;100.00
34243;BME280;20504;43.214;27.920;2023-02-21T04:12:21;100321.31;;;10.53;100.00
34243;BME280;20504;43.214;27.920;2023-02-21T04:14:47;100329.81;;;10.58;100.00
34243;BME280;20504;43.214;27.920;2023-02-21T04:17:12;100319.75;;;10.64;100.00
34243;BME280;20504;43.214;27.920;2023-02-21T04:19:38;100289.53;;;10.79;100.00
34243;BME280;20504;43.214;27.920;2023-02-21T04:22:03;100296.44;;;10.81;100.00
34243;BME280;20504;43.214;27.920;2023-02-21T04:24:29;100292.50;;;10.87;100.00
34243;BME280;20504;43.214;27.920;2023-02-21T04:26:54;100283.59;;;11.01;100.00
34243;BME280;20504;43.214;27.920;2023-02-21T04:29:20;100307.78;;;10.96;100.00
34243;BME280;20504;43.214;27.920;2023-02-21T04:31:45;100291.84;;;10.96;100.00
34243;BME280;20504;43.214;27.920;2023-02-21T04:34:11;100286.03;;;11.16;100.00
34243;BME280;20504;43.214;27.920;2023-02-21T04:36:37;100295.47;;;11.20;100.00
34243;BME280;20504;43.214;27.920;2023-02-21T04:39:03;100281.22;;;11.21;100.00
34243;BME280;20504;43.214;27.920;2023-02-21T04:41:29;100291.91;;;11.33;100.00
34243;BME280;20504;43.214;27.920;2023-02-21T04:43:54;100281.84;;;11.38;100.00
34243;BME280;20504;43.214;27.920;2023-02-21T04:46:20;100286.94;;;11.41;100.00
34243;BME280;20504;43.214;27.920;2023-02-21T04:48:47;100302.13;;;11.39;100.00
34243;BME280;20504;43.214;27.920;2023-02-21T04:51:16;100294.88;;;11.41;100.00
34243;BME280;20504;43.214;27.920;2023-02-21T04:53:43;100273.41;;;11.44;100.00
34243;BME280;20504;43.214;27.920;2023-02-21T04:56:08;100297.72;;;11.50;100.00
34243;BME280;20504;43.214;27.920;2023-02-21T04:58:35;100314.50;;;11.51;100.00
34243;BME280;20504;43.214;27.920;2023-02-21T05:01:00;100320.38;;;11.43;100.00
34243;BME280;20504;43.214;27.920;2023-02-21T05:03:26;100306.88;;;11.46;100.00
34243;BME280;20504;43.214;27.920;2023-02-21T05:05:51;100289.75;;;11.50;100.00
34243;BME280;20504;43.214;27.920;2023-02-21T05:08:17;100284.53;;;11.62;100.00
34243;BME280;20504;43.214;27.920;2023-02-21T05:10:42;100255.41;;;11.60;100.00
34243;BME280;20504;43.214;27.920;2023-02-21T05:13:08;100283.34;;;11.78;100.00
34243;BME280;20504;43.214;27.920;2023-02-21T05:15:33;100282.44;;;11.78;100.00
34243;BME280;20504;43.214;27.920;2023-02-21T05:17:59;100275.25;;;11.80;100.00
34243;BME280;20504;43.214;27.920;2023-02-21T05:20:25;100279.13;;;11.87;100.00
34243;BME280;20504;43.214;27.920;2023-02-21T05:22:50;100289.97;;;11.97;100.00
34243;BME280;20504;43.214;27.920;2023-02-21T05:25:17;100276.09;;;12.04;100.00
34243;BME280;20504;43.214;27.920;2023-02-21T05:27:44;100258.16;;;12.19;100.00
34243;BME280;20504;43.214;27.920;2023-02-21T05:30:11;100263.69;;;12.16;100.00
34243;BME280;20504;43.214;27.920;2023-02-21T05:32:36;100259.06;;;12.07;100.00
34243;BME280;20504;43.214;27.920;2023-02-21T05:35:02;100292.78;;;11.82;100.00
34243;BME280;20504;43.214;27.920;2023-02-21T05:37:28;100313.00;;;11.60;100.00
34243;BME280;20504;43.214;27.920;2023-02-21T05:39:53;100287.75;;;11.54;100.00
34243;BME280;20504;43.214;27.920;2023-02-21T05:42:19;100268.97;;;11.68;100.00
34243;BME280;20504;43.214;27.920;2023-02-21T05:44:45;100285.88;;;11.80;100.00
34243;BME280;20504;43.214;27.920;2023-02-21T05:47:14;100267.66;;;11.87;100.00
34243;BME280;20504;43.214;27.920;2023-02-21T05:49:40;100242.00;;;11.98;100.00
34243;BME280;20504;43.214;27.920;2023-02-21T05:52:06;100258.31;;;12.05;100.00
34243;BME280;20504;43.214;27.920;2023-02-21T05:54:32;100267.38;;;12.02;100.00
34243;BME280;20504;43.214;27.920;2023-02-21T05:56:57;100251.38;;;12.15;100.00
34243;BME280;20504;43.214;27.920;2023-02-21T05:59:23;100242.06;;;12.21;100.00
34243;BME280;20504;43.214;27.920;2023-02-21T06:01:49;100232.09;;;12.35;100.00
34243;BME280;20504;43.214;27.920;2023-02-21T06:04:16;100223.66;;;12.53;100.00
34243;BME280;20504;43.214;27.920;2023-02-21T06:06:42;100202.66;;;12.72;100.00
34243;BME280;20504;43.214;27.920;2023-02-21T06:09:08;100181.84;;;12.88;100.00
34243;BME280;20504;43.214;27.920;2023-02-21T06:11:35;100177.47;;;12.98;100.00
34243;BME280;20504;43.214;27.920;2023-02-21T06:14:07;100154.09;;;13.13;100.00
34243;BME280;20504;43.214;27.920;2023-02-21T06:16:34;100159.06;;;13.29;100.00
34243;BME280;20504;43.214;27.920;2023-02-21T06:19:01;100139.63;;;13.49;100.00
34243;BME280;20504;43.214;27.920;2023-02-21T06:21:26;100139.47;;;13.62;100.00
34243;BME280;20504;43.214;27.920;2023-02-21T06:23:52;100114.91;;;13.79;100.00
34243;BME280;20504;43.214;27.920;2023-02-21T06:26:18;100095.91;;;13.93;100.00
34243;BME280;20504;43.214;27.920;2023-02-21T06:28:44;100091.69;;;14.12;100.00
34243;BME280;20504;43.214;27.920;2023-02-21T06:31:09;100075.53;;;14.34;100.00
34243;BME280;20504;43.214;27.920;2023-02-21T06:33:35;100052.94;;;14.38;100.00
34243;BME280;20504;43.214;27.920;2023-02-21T06:36:09;100038.84;;;14.67;100.00
34243;BME280;20504;43.214;27.920;2023-02-21T06:38:36;100026.13;;;14.80;100.00
34243;BME280;20504;43.214;27.920;2023-02-21T06:41:06;100020.94;;;14.88;100.00
34243;BME280;20504;43.214;27.920;2023-02-21T06:43:31;99987.34;;;15.05;100.00
34243;BME280;20504;43.214;27.920;2023-02-21T06:45:57;99995.53;;;15.13;100.00
34243;BME280;20504;43.214;27.920;2023-02-21T06:48:22;99976.66;;;15.24;100.00
34243;BME280;20504;43.214;27.920;2023-02-21T06:50:48;99976.53;;;15.16;100.00
34243;BME280;20504;43.214;27.920;2023-02-21T06:53:13;99984.81;;;15.32;100.00
34243;BME280;20504;43.214;27.920;2023-02-21T06:55:39;99972.28;;;15.42;100.00
34243;BME280;20504;43.214;27.920;2023-02-21T06:58:05;99983.13;;;15.22;100.00
34243;BME280;20504;43.214;27.920;2023-02-21T07:00:31;99985.09;;;15.20;100.00
34243;BME280;20504;43.214;27.920;2023-02-21T07:02:56;99965.69;;;15.47;100.00
34243;BME280;20504;43.214;27.920;2023-02-21T07:05:22;99957.09;;;15.62;100.00
34243;BME280;20504;43.214;27.920;2023-02-21T07:07:47;99944.41;;;15.55;100.00
34243;BME280;20504;43.214;27.920;2023-02-21T07:10:13;99953.97;;;15.57;100.00
34243;BME280;20504;43.214;27.920;2023-02-21T07:12:38;99904.00;;;15.77;100.00
34243;BME280;20504;43.214;27.920;2023-02-21T07:15:05;99912.97;;;15.86;100.00
34243;BME280;20504;43.214;27.920;2023-02-21T07:17:30;99915.69;;;15.76;100.00
34243;BME280;20504;43.214;27.920;2023-02-21T07:19:56;99900.53;;;15.94;100.00
34243;BME280;20504;43.214;27.920;2023-02-21T07:22:21;99887.66;;;16.08;100.00
34243;BME280;20504;43.214;27.920;2023-02-21T07:24:54;99854.66;;;16.17;100.00
34243;BME280;20504;43.214;27.920;2023-02-21T07:27:21;99843.69;;;16.38;100.00
34243;BME280;20504;43.214;27.920;2023-02-21T07:29:47;99838.09;;;16.31;100.00
34243;BME280;20504;43.214;27.920;2023-02-21T07:32:14;99802.91;;;16.61;100.00
34243;BME280;20504;43.214;27.920;2023-02-21T07:34:40;99779.31;;;16.75;100.00
34243;BME280;20504;43.214;27.920;2023-02-21T07:37:06;99733.81;;;16.83;100.00
34243;BME280;20504;43.214;27.920;2023-02-21T07:39:32;99760.72;;;16.99;100.00
34243;BME280;20504;43.214;27.920;2023-02-21T07:41:57;99739.97;;;17.01;100.00
34243;BME280;20504;43.214;27.920;2023-02-21T07:44:23;99743.50;;;17.10;100.00
34243;BME280;20504;43.214;27.920;2023-02-21T07:46:48;99760.22;;;17.04;100.00
34243;BME280;20504;43.214;27.920;2023-02-21T07:49:14;99771.50;;;16.89;100.00
34243;BME280;20504;43.214;27.920;2023-02-21T07:51:39;99763.47;;;16.89;100.00
34243;BME280;20504;43.214;27.920;2023-02-21T07:54:05;99774.19;;;16.89;100.00
34243;BME280;20504;43.214;27.920;2023-02-21T07:56:30;99749.66;;;17.02;100.00
34243;BME280;20504;43.214;27.920;2023-02-21T07:58:56;99737.97;;;17.03;100.00
34243;BME280;20504;43.214;27.920;2023-02-21T08:01:23;99705.06;;;17.19;100.00
34243;BME280;20504;43.214;27.920;2023-02-21T08:03:49;99712.59;;;17.23;100.00
34243;BME280;20504;43.214;27.920;2023-02-21T08:06:15;99655.75;;;17.54;100.00
34243;BME280;20504;43.214;27.920;2023-02-21T08:08:40;99654.31;;;17.76;100.00
34243;BME280;20504;43.214;27.920;2023-02-21T08:11:06;99636.38;;;17.68;100.00
34243;BME280;20504;43.214;27.920;2023-02-21T08:13:31;99623.47;;;17.80;100.00
34243;BME280;20504;43.214;27.920;2023-02-21T08:15:57;99641.41;;;17.71;100.00
34243;BME280;20504;43.214;27.920;2023-02-21T08:18:23;99624.66;;;17.69;100.00
34243;BME280;20504;43.214;27.920;2023-02-21T08:20:53;99632.69;;;17.69;100.00
34243;BME280;20504;43.214;27.920;2023-02-21T08:23:19;99618.31;;;17.87;100.00
34243;BME280;20504;43.214;27.920;2023-02-21T08:25:46;99616.13;;;17.90;100.00
34243;BME280;20504;43.214;27.920;2023-02-21T08:28:12;99591.97;;;18.06;100.00
34243;BME280;20504;43.214;27.920;2023-02-21T08:30:38;99558.56;;;18.25;100.00
34243;BME280;20504;43.214;27.920;2023-02-21T08:33:04;99531.50;;;18.43;100.00
34243;BME280;20504;43.214;27.920;2023-02-21T08:35:30;99496.16;;;18.70;100.00
34243;BME280;20504;43.214;27.920;2023-02-21T08:37:55;99474.03;;;18.91;100.00
34243;BME280;20504;43.214;27.920;2023-02-21T08:40:23;99450.88;;;19.13;100.00
34243;BME280;20504;43.214;27.920;2023-02-21T08:42:52;99498.19;;;18.68;100.00
34243;BME280;20504;43.214;27.920;2023-02-21T08:45:19;99463.91;;;19.01;100.00
34243;BME280;20504;43.214;27.920;2023-02-21T08:47:45;99400.47;;;19.38;100.00
34243;BME280;20504;43.214;27.920;2023-02-21T08:50:11;99402.00;;;19.32;100.00
34243;BME280;20504;43.214;27.920;2023-02-21T08:52:37;99414.75;;;19.39;100.00
34243;BME280;20504;43.214;27.920;2023-02-21T08:55:04;99434.28;;;19.10;100.00
34243;BME280;20504;43.214;27.920;2023-02-21T08:57:30;99449.72;;;19.16;100.00
34243;BME280;20504;43.214;27.920;2023-02-21T08:59:55;99402.47;;;19.59;100.00
34243;BME280;20504;43.214;27.920;2023-02-21T09:02:23;99435.09;;;19.33;100.00
34243;BME280;20504;43.214;27.920;2023-02-21T09:04:53;99420.75;;;19.41;100.00
34243;BME280;20504;43.214;27.920;2023-02-21T09:07:20;99452.69;;;19.21;100.00
34243;BME280;20504;43.214;27.920;2023-02-21T09:09:46;99455.09;;;19.16;100.00
34243;BME280;20504;43.214;27.920;2023-02-21T09:12:11;99397.69;;;19.46;100.00
34243;BME280;20504;43.214;27.920;2023-02-21T09:14:39;99405.47;;;19.41;100.00
34243;BME280;20504;43.214;27.920;2023-02-21T09:17:06;99365.03;;;19.72;100.00
34243;BME280;20504;43.214;27.920;2023-02-21T09:19:32;99390.25;;;19.48;100.00
34243;BME280;20504;43.214;27.920;2023-02-21T09:21:58;99396.47;;;19.49;100.00
34243;BME280;20504;43.214;27.920;2023-02-21T09:24:25;99363.69;;;19.83;100.00
34243;BME280;20504;43.214;27.920;2023-02-21T09:26:52;99361.19;;;19.66;100.00
34243;BME280;20504;43.214;27.920;2023-02-21T09:29:27;99391.25;;;19.55;100.00
34243;BME280;20504;43.214;27.920;2023-02-21T09:31:54;99366.50;;;19.60;100.00
34243;BME280;20504;43.214;27.920;2023-02-21T09:34:23;99325.66;;;19.86;100.00
34243;BME280;20504;43.214;27.920;2023-02-21T09:36:48;99349.41;;;19.82;100.00
34243;BME280;20504;43.214;27.920;2023-02-21T09:39:15;99327.25;;;19.80;100.00
34243;BME280;20504;43.214;27.920;2023-02-21T09:41:41;99311.53;;;19.99;100.00
34243;BME280;20504;43.214;27.920;2023-02-21T09:44:21;99274.03;;;20.12;100.00
34243;BME280;20504;43.214;27.920;2023-02-21T09:47:06;99315.47;;;19.81;100.00
34243;BME280;20504;43.214;27.920;2023-02-21T09:49:39;99295.47;;;20.05;100.00
34243;BME280;20504;43.214;27.920;2023-02-21T09:52:19;99294.19;;;20.01;100.00
34243;BME280;20504;43.214;27.920;2023-02-21T09:54:51;99271.34;;;19.76;100.00
34243;BME280;20504;43.214;27.920;2023-02-21T09:57:18;99242.53;;;20.27;100.00
34243;BME280;20504;43.214;27.920;2023-02-21T09:59:44;99292.47;;;19.93;100.00
34243;BME280;20504;43.214;27.920;2023-02-21T10:04:54;99242.81;;;20.17;100.00
34243;BME280;20504;43.214;27.920;2023-02-21T10:07:30;99242.25;;;20.22;100.00
34243;BME280;20504;43.214;27.920;2023-02-21T10:12:53;99164.41;;;20.70;100.00
34243;BME280;20504;43.214;27.920;2023-02-21T10:15:44;99157.97;;;20.71;100.00
34243;BME280;20504;43.214;27.920;2023-02-21T10:21:01;99158.13;;;20.63;100.00
34243;BME280;20504;43.214;27.920;2023-02-21T10:23:47;99114.91;;;20.77;100.00
34243;BME280;20504;43.214;27.920;2023-02-21T10:26:19;99103.59;;;20.89;100.00
34243;BME280;20504;43.214;27.920;2023-02-21T10:28:48;99083.28;;;20.93;100.00
34243;BME280;20504;43.214;27.920;2023-02-21T10:31:20;99018.47;;;21.07;100.00
34243;BME280;20504;43.214;27.920;2023-02-21T10:33:48;99036.09;;;21.10;100.00
34243;BME280;20504;43.214;27.920;2023-02-21T10:36:21;99002.78;;;21.31;100.00
34243;BME280;20504;43.214;27.920;2023-02-21T10:38:57;98957.81;;;21.64;100.00
34243;BME280;20504;43.214;27.920;2023-02-21T10:41:26;98914.16;;;21.94;100.00
34243;BME280;20504;43.214;27.920;2023-02-21T10:43:59;98861.78;;;22.28;100.00
34243;BME280;20504;43.214;27.920;2023-02-21T10:46:41;98806.09;;;22.65;100.00
34243;BME280;20504;43.214;27.920;2023-02-21T10:49:23;98655.13;;;23.73;100.00
34243;BME280;20504;43.214;27.920;2023-02-21T10:54:29;98741.44;;;23.20;100.00
34243;BME280;20504;43.214;27.920;2023-02-21T10:56:55;98726.13;;;23.14;100.00
34243;BME280;20504;43.214;27.920;2023-02-21T10:59:29;98785.63;;;22.89;100.00
34243;BME280;20504;43.214;27.920;2023-02-21T11:01:56;98791.97;;;22.70;100.00
34243;BME280;20504;43.214;27.920;2023-02-21T11:04:28;98772.31;;;22.81;100.00
34243;BME280;20504;43.214;27.920;2023-02-21T11:07:15;98680.69;;;23.59;100.00
34243;BME280;20504;43.214;27.920;2023-02-21T11:09:45;98643.91;;;23.88;99.55
34243;BME280;20504;43.214;27.920;2023-02-21T11:12:25;98763.00;;;23.08;98.80
34243;BME280;20504;43.214;27.920;2023-02-21T11:17:27;98775.94;;;23.00;97.95
34243;BME280;20504;43.214;27.920;2023-02-21T11:19:55;98826.44;;;22.67;98.04
34243;BME280;20504;43.214;27.920;2023-02-21T11:25:27;98835.22;;;22.63;97.66
34243;BME280;20504;43.214;27.920;2023-02-21T11:31:10;98852.53;;;22.49;97.05
34243;BME280;20504;43.214;27.920;2023-02-21T11:33:59;98848.00;;;22.43;96.22
34243;BME280;20504;43.214;27.920;2023-02-21T11:36:31;98854.31;;;22.23;95.29
34243;BME280;20504;43.214;27.920;2023-02-21T11:39:14;98894.88;;;22.10;94.96
34243;BME280;20504;43.214;27.920;2023-02-21T11:42:02;98902.78;;;21.98;94.34
34243;BME280;20504;43.214;27.920;2023-02-21T11:44:31;98947.44;;;21.81;93.77
34243;BME280;20504;43.214;27.920;2023-02-21T11:49:47;98958.84;;;21.70;93.81
34243;BME280;20504;43.214;27.920;2023-02-21T11:52:20;98954.88;;;21.72;93.68
34243;BME280;20504;43.214;27.920;2023-02-21T11:54:47;98861.16;;;22.26;93.67
34243;BME280;20504;43.214;27.920;2023-02-21T12:00:37;98926.66;;;21.88;94.21
34243;BME280;20504;43.214;27.920;2023-02-21T12:09:09;98899.06;;;21.86;93.83
34243;BME280;20504;43.214;27.920;2023-02-21T12:17:45;98890.78;;;21.48;93.16
34243;BME280;20504;43.214;27.920;2023-02-21T12:22:53;98879.94;;;21.94;92.56
34243;BME280;20504;43.214;27.920;2023-02-21T12:41:53;98918.19;;;21.65;89.75
34243;BME280;20504;43.214;27.920;2023-02-21T12:47:06;98902.84;;;21.59;89.81
34243;BME280;20504;43.214;27.920;2023-02-21T12:49:39;98936.03;;;21.46;90.05
34243;BME280;20504;43.214;27.920;2023-02-21T12:54:51;98919.22;;;21.57;90.00
34243;BME280;20504;43.214;27.920;2023-02-21T13:00:21;98921.72;;;21.39;89.11
34243;BME280;20504;43.214;27.920;2023-02-21T13:05:41;98924.59;;;21.37;88.21
34243;BME280;20504;43.214;27.920;2023-02-21T13:08:22;98887.25;;;21.67;87.84
34243;BME280;20504;43.214;27.920;2023-02-21T13:10:58;98925.66;;;21.43;87.78
34243;BME280;20504;43.214;27.920;2023-02-21T13:13:29;98926.00;;;21.07;87.85
34243;BME280;20504;43.214;27.920;2023-02-21T13:16:02;98978.00;;;21.01;88.24
34243;BME280;20504;43.214;27.920;2023-02-21T13:18:38;98978.81;;;20.95;88.75
34243;BME280;20504;43.214;27.920;2023-02-21T13:21:29;98995.41;;;20.92;88.90
34243;BME280;20504;43.214;27.920;2023-02-21T13:23:58;99004.72;;;20.82;88.91
34243;BME280;20504;43.214;27.920;2023-02-21T13:29:01;98987.31;;;20.92;89.03
34243;BME280;20504;43.214;27.920;2023-02-21T13:31:31;98977.63;;;21.04;88.49
34243;BME280;20504;43.214;27.920;2023-02-21T13:34:08;98880.84;;;21.49;89.12
34243;BME280;20504;43.214;27.920;2023-02-21T13:36:41;98886.63;;;21.65;88.38
34243;BME280;20504;43.214;27.920;2023-02-21T13:41:53;98802.63;;;22.20;88.18
34243;BME280;20504;43.214;27.920;2023-02-21T13:44:25;98770.28;;;22.51;88.13
34243;BME280;20504;43.214;27.920;2023-02-21T13:57:37;98675.44;;;23.27;87.03
34243;BME280;20504;43.214;27.920;2023-02-21T19:38:37;99630.75;;;16.87;100.00
34243;BME280;20504;43.214;27.920;2023-02-21T19:41:05;99617.59;;;17.10;100.00
34243;BME280;20504;43.214;27.920;2023-02-21T19:43:31;99609.78;;;17.24;100.00
34243;BME280;20504;43.214;27.920;2023-02-21T19:45:57;99603.63;;;17.32;100.00
34243;BME280;20504;43.214;27.920;2023-02-21T19:48:23;99602.13;;;17.38;100.00
34243;BME280;20504;43.214;27.920;2023-02-21T19:50:48;99597.75;;;17.37;100.00
34243;BME280;20504;43.214;27.920;2023-02-21T19:53:14;99576.50;;;17.60;100.00
34243;BME280;20504;43.214;27.920;2023-02-21T19:55:40;99611.81;;;17.39;100.00
34243;BME280;20504;43.214;27.920;2023-02-21T19:58:05;99548.06;;;17.75;100.00
34243;BME280;20504;43.214;27.920;2023-02-21T20:00:34;99627.19;;;17.29;100.00
34243;BME280;20504;43.214;27.920;2023-02-21T20:02:59;99635.25;;;17.29;100.00
34243;BME280;20504;43.214;27.920;2023-02-21T20:05:25;99626.38;;;17.28;100.00
34243;BME280;20504;43.214;27.920;2023-02-21T20:07:51;99618.53;;;17.35;100.00
34243;BME280;20504;43.214;27.920;2023-02-21T20:10:17;99512.81;;;18.02;100.00
34243;BME280;20504;43.214;27.920;2023-02-21T20:12:52;99598.28;;;17.48;100.00
34243;BME280;20504;43.214;27.920;2023-02-21T20:15:18;99611.31;;;17.43;100.00
34243;BME280;20504;43.214;27.920;2023-02-21T20:17:44;99587.88;;;17.45;100.00
34243;BME280;20504;43.214;27.920;2023-02-21T20:20:10;99558.28;;;17.79;100.00
34243;BME280;20504;43.214;27.920;2023-02-21T20:22:36;99567.50;;;17.77;100.00
34243;BME280;20504;43.214;27.920;2023-02-21T20:25:02;99673.75;;;17.19;100.00
34243;BME280;20504;43.214;27.920;2023-02-21T20:27:28;99669.09;;;17.30;100.00
34243;BME280;20504;43.214;27.920;2023-02-21T20:29:53;99676.03;;;17.06;100.00
34243;BME280;20504;43.214;27.920;2023-02-21T20:32:19;99682.63;;;17.20;100.00
34243;BME280;20504;43.214;27.920;2023-02-21T20:34:44;99672.06;;;17.18;100.00
34243;BME280;20504;43.214;27.920;2023-02-21T20:37:10;99694.06;;;16.96;100.00